createdAt,value
2018-02-23T00:00:45.429Z,-0.60
2018-02-23T00:03:13.281Z,-0.60
2018-02-23T00:05:41.060Z,-0.60
2018-02-23T00:08:09.036Z,-0.60
2018-02-23T00:10:37.189Z,-0.50
2018-02-23T00:13:05.175Z,-0.60
2018-02-23T00:15:33.123Z,-0.60
2018-02-23T00:18:01.201Z,-0.70
2018-02-23T00:20:29.672Z,-0.60
2018-02-23T00:22:57.538Z,-0.70
2018-02-23T00:25:25.525Z,-0.70
2018-02-23T00:27:53.296Z,-0.70
2018-02-23T00:30:21.142Z,-0.70
2018-02-23T00:32:48.927Z,-0.60
2018-02-23T00:35:16.679Z,-0.60
2018-02-23T00:37:44.794Z,-0.60
2018-02-23T00:40:12.553Z,-0.60
2018-02-23T00:42:41.088Z,-0.60
2018-02-23T00:45:09.072Z,-0.60
2018-02-23T00:47:36.838Z,-0.60
2018-02-23T00:50:04.698Z,-0.60
2018-02-23T00:52:32.469Z,-0.70
2018-02-23T00:55:00.392Z,-0.70
2018-02-23T00:57:28.219Z,-0.60
2018-02-23T00:59:56.878Z,-0.60
2018-02-23T01:02:24.752Z,-0.70
2018-02-23T01:04:52.510Z,-0.70
2018-02-23T01:07:20.296Z,-0.70
2018-02-23T01:09:48.059Z,-0.70
2018-02-23T01:12:16.095Z,-0.60
2018-02-23T01:14:43.878Z,-0.60
2018-02-23T01:17:11.842Z,-0.60
2018-02-23T01:19:39.737Z,-0.60
2018-02-23T01:22:08.581Z,-0.60
2018-02-23T01:24:37.391Z,-0.60
2018-02-23T01:27:05.370Z,-0.60
2018-02-23T01:29:33.227Z,-0.70
2018-02-23T01:32:01.195Z,-0.70
2018-02-23T01:34:29.271Z,-0.70
2018-02-23T01:36:57.024Z,-0.70
2018-02-23T01:39:24.892Z,-0.60
2018-02-23T01:41:52.664Z,-0.60
2018-02-23T01:44:20.424Z,-0.70
2018-02-23T01:46:48.475Z,-0.60
2018-02-23T01:49:16.214Z,-0.70
2018-02-23T01:51:44.746Z,-0.70
2018-02-23T01:54:13.423Z,-0.70
2018-02-23T01:56:41.292Z,-0.70
2018-02-23T01:59:09.161Z,-0.70
2018-02-23T02:01:37.018Z,-0.60
2018-02-23T02:04:04.990Z,-0.60
2018-02-23T02:06:33.661Z,-0.70
2018-02-23T02:09:01.626Z,-0.70
2018-02-23T02:11:29.515Z,-0.70
2018-02-23T02:13:57.277Z,-0.70
2018-02-23T02:16:25.225Z,-0.70
2018-02-23T02:18:53.780Z,-0.60
2018-02-23T02:21:21.675Z,-0.70
2018-02-23T02:23:49.443Z,-0.60
2018-02-23T02:26:17.631Z,-0.70
2018-02-23T02:28:45.496Z,-0.70
2018-02-23T02:31:13.961Z,-0.70
2018-02-23T02:33:41.930Z,-0.70
2018-02-23T02:36:09.752Z,-0.80
2018-02-23T02:38:37.784Z,-0.70
2018-02-23T02:41:05.646Z,-0.70
2018-02-23T02:43:33.516Z,-0.70
2018-02-23T02:46:01.280Z,-0.70
2018-02-23T02:48:30.022Z,-0.70
2018-02-23T02:50:58.016Z,-0.70
2018-02-23T02:53:25.883Z,-0.70
2018-02-23T02:55:53.706Z,-0.70
2018-02-23T02:58:21.630Z,-0.70
2018-02-23T03:00:49.705Z,-0.70
2018-02-23T03:03:18.089Z,-0.70
2018-02-23T03:05:45.868Z,-0.70
2018-02-23T03:08:15.242Z,-0.70
2018-02-23T03:10:43.011Z,-0.80
2018-02-23T03:13:10.965Z,-0.70
2018-02-23T03:15:39.060Z,-0.70
2018-02-23T03:18:06.917Z,-0.80
2018-02-23T03:20:34.868Z,-0.80
2018-02-23T03:23:03.475Z,-0.80
2018-02-23T03:25:31.226Z,-0.80
2018-02-23T03:27:59.424Z,-0.80
2018-02-23T03:30:27.367Z,-0.80
2018-02-23T03:32:55.119Z,-0.80
2018-02-23T03:35:22.862Z,-0.80
2018-02-23T03:37:50.617Z,-0.70
2018-02-23T03:40:18.375Z,-0.70
2018-02-23T03:42:46.147Z,-0.80
2018-02-23T03:45:13.901Z,-0.80
2018-02-23T03:47:42.627Z,-0.80
2018-02-23T03:50:10.532Z,-0.90
2018-02-23T03:52:38.440Z,-0.90
2018-02-23T03:55:06.226Z,-0.90
2018-02-23T03:57:34.003Z,-0.90
2018-02-23T04:00:02.186Z,-0.90
2018-02-23T04:02:30.375Z,-0.90
2018-02-23T04:04:59.995Z,-0.90
2018-02-23T04:07:27.861Z,-0.90
2018-02-23T04:09:56.382Z,-0.80
2018-02-23T04:12:24.274Z,-0.90
2018-02-23T04:14:52.185Z,-0.80
2018-02-23T04:17:21.040Z,-0.90
2018-02-23T04:19:48.783Z,-0.90
2018-02-23T04:22:16.521Z,-0.90
2018-02-23T04:24:44.308Z,-0.90
2018-02-23T04:27:12.042Z,-0.90
2018-02-23T04:29:39.832Z,-0.90
2018-02-23T04:32:07.586Z,-0.90
2018-02-23T04:34:35.588Z,-1.00
2018-02-23T04:37:03.355Z,-1.00
2018-02-23T04:39:31.330Z,-1.00
2018-02-23T04:41:59.400Z,-1.00
2018-02-23T04:44:27.156Z,-1.00
2018-02-23T04:46:55.042Z,-1.00
2018-02-23T04:49:22.882Z,-1.00
2018-02-23T04:51:50.836Z,-1.00
2018-02-23T04:54:18.727Z,-1.00
2018-02-23T04:56:46.478Z,-1.00
2018-02-23T04:59:14.332Z,-1.00
2018-02-23T05:01:42.205Z,-1.00
2018-02-23T05:04:10.202Z,-1.00
2018-02-23T05:06:38.168Z,-1.00
2018-02-23T05:09:05.935Z,-1.10
2018-02-23T05:11:34.027Z,-1.00
2018-02-23T05:14:03.007Z,-1.00
2018-02-23T05:16:31.880Z,-1.00
2018-02-23T05:19:00.182Z,-1.00
2018-02-23T05:21:28.817Z,-0.90
2018-02-23T05:23:56.578Z,-0.90
2018-02-23T05:26:24.580Z,-0.90
2018-02-23T05:28:52.548Z,-0.90
2018-02-23T05:31:20.508Z,-0.90
2018-02-23T05:33:48.382Z,-0.90
2018-02-23T05:36:16.137Z,-0.90
2018-02-23T05:38:44.208Z,-0.90
2018-02-23T05:41:11.950Z,-0.90
2018-02-23T05:43:39.938Z,-0.90
2018-02-23T05:46:07.895Z,-0.90
2018-02-23T05:48:35.783Z,-0.90
2018-02-23T05:51:03.663Z,-1.00
2018-02-23T05:53:32.225Z,-1.00
2018-02-23T05:56:00.431Z,-1.00
2018-02-23T05:58:29.297Z,-1.00
2018-02-23T06:00:57.737Z,-1.00
2018-02-23T06:03:25.646Z,-1.00
2018-02-23T06:05:53.507Z,-1.00
2018-02-23T06:08:21.367Z,-1.00
2018-02-23T06:10:49.237Z,-1.00
2018-02-23T06:13:17.091Z,-1.00
2018-02-23T06:15:51.151Z,-1.00
2018-02-23T06:18:24.509Z,-0.90
2018-02-23T06:20:52.278Z,-1.00
2018-02-23T06:23:21.577Z,-1.00
2018-02-23T06:25:49.449Z,-1.00
2018-02-23T06:28:17.230Z,-1.00
2018-02-23T06:30:44.988Z,-1.00
2018-02-23T06:33:13.537Z,-1.00
2018-02-23T06:35:41.428Z,-1.00
2018-02-23T06:38:10.081Z,-1.00
2018-02-23T06:40:37.852Z,-1.00
2018-02-23T06:43:05.603Z,-1.00
2018-02-23T06:45:33.386Z,-1.00
2018-02-23T06:48:02.075Z,-1.00
2018-02-23T06:50:29.946Z,-1.00
2018-02-23T06:52:59.327Z,-1.00
2018-02-23T06:55:27.192Z,-1.00
2018-02-23T06:57:54.977Z,-1.00
2018-02-23T07:00:22.926Z,-0.90
2018-02-23T07:02:50.704Z,-0.90
2018-02-23T07:05:18.584Z,-0.90
2018-02-23T07:07:47.867Z,-0.90
2018-02-23T07:10:16.431Z,-0.90
2018-02-23T07:12:44.403Z,-0.90
2018-02-23T07:15:12.306Z,-0.90
2018-02-23T07:17:40.842Z,-1.00
2018-02-23T07:20:08.749Z,-1.00
2018-02-23T07:22:36.517Z,-1.00
2018-02-23T07:25:04.367Z,-1.00
2018-02-23T07:27:32.319Z,-1.00
2018-02-23T07:30:00.188Z,-0.90
2018-02-23T07:32:28.804Z,-0.90
2018-02-23T07:34:56.564Z,-0.80
2018-02-23T07:37:24.398Z,-0.80
2018-02-23T07:39:52.301Z,-0.90
2018-02-23T07:42:20.945Z,-0.80
2018-02-23T07:44:48.714Z,-0.90
2018-02-23T07:47:16.607Z,-0.80
2018-02-23T07:49:46.190Z,-0.80
2018-02-23T07:52:14.058Z,-0.80
2018-02-23T07:54:41.808Z,-0.70
2018-02-23T07:57:09.599Z,-0.70
2018-02-23T07:59:37.469Z,-0.60
2018-02-23T08:02:05.249Z,-0.60
2018-02-23T08:04:33.111Z,-0.50
2018-02-23T08:07:01.011Z,-0.50
2018-02-23T08:09:28.809Z,-0.50
2018-02-23T08:11:56.790Z,-0.50
2018-02-23T08:14:24.781Z,-0.50
2018-02-23T08:16:53.454Z,-0.30
2018-02-23T08:19:21.402Z,-0.30
2018-02-23T08:21:49.379Z,-0.40
2018-02-23T08:24:17.262Z,-0.40
2018-02-23T08:26:45.238Z,-0.30
2018-02-23T08:29:13.085Z,-0.20
2018-02-23T08:31:40.831Z,-0.20
2018-02-23T08:34:08.729Z,-0.10
2018-02-23T08:36:36.606Z,0.00
2018-02-23T08:39:05.283Z,-0.10
2018-02-23T08:41:33.150Z,-0.20
2018-02-23T08:44:01.054Z,-0.30
2018-02-23T08:46:28.954Z,-0.30
2018-02-23T08:48:56.730Z,-0.20
2018-02-23T08:51:24.618Z,-0.20
2018-02-23T08:53:53.189Z,-0.10
2018-02-23T08:56:21.317Z,-0.10
2018-02-23T08:58:49.345Z,-0.10
2018-02-23T09:01:17.567Z,-0.10
2018-02-23T09:03:45.582Z,-0.10
2018-02-23T09:06:13.402Z,-0.10
2018-02-23T09:08:41.303Z,-0.10
2018-02-23T09:11:09.155Z,-0.10
2018-02-23T09:13:37.202Z,0.00
2018-02-23T09:16:05.226Z,0.20
2018-02-23T09:18:33.083Z,0.20
2018-02-23T09:21:01.029Z,0.40
2018-02-23T09:23:29.001Z,0.50
2018-02-23T09:25:56.816Z,0.60
2018-02-23T09:28:25.553Z,0.30
2018-02-23T09:30:53.436Z,0.30
2018-02-23T09:33:21.398Z,0.30
2018-02-23T09:35:49.371Z,0.40
2018-02-23T09:38:17.347Z,0.50
2018-02-23T09:40:45.289Z,0.70
2018-02-23T09:43:13.192Z,0.90
2018-02-23T09:45:41.145Z,1.10
2018-02-23T09:48:09.020Z,1.40
2018-02-23T09:50:36.882Z,1.50
2018-02-23T09:53:05.419Z,1.00
2018-02-23T09:55:33.330Z,0.90
2018-02-23T09:58:01.906Z,0.60
2018-02-23T10:00:29.777Z,0.60
2018-02-23T10:02:57.651Z,0.50
2018-02-23T10:05:25.509Z,0.50
2018-02-23T10:07:53.347Z,0.50
2018-02-23T10:10:21.142Z,0.40
2018-02-23T10:12:48.926Z,0.50
2018-02-23T10:15:17.488Z,0.70
2018-02-23T10:17:45.260Z,0.60
2018-02-23T10:20:13.943Z,0.60
2018-02-23T10:22:41.836Z,0.60
2018-02-23T10:25:10.496Z,0.50
2018-02-23T10:27:38.423Z,0.40
2018-02-23T10:30:06.228Z,0.40
2018-02-23T10:32:35.122Z,0.60
2018-02-23T10:35:02.980Z,0.60
2018-02-23T10:37:31.142Z,0.80
2018-02-23T10:39:59.020Z,0.80
2018-02-23T10:42:26.894Z,1.10
2018-02-23T10:44:54.835Z,0.80
2018-02-23T10:47:22.711Z,0.80
2018-02-23T10:49:50.575Z,0.70
2018-02-23T10:52:18.640Z,0.70
2018-02-23T10:54:46.433Z,0.80
2018-02-23T10:57:14.297Z,0.90
2018-02-23T10:59:42.173Z,1.00
2018-02-23T11:02:10.026Z,0.90
2018-02-23T11:04:37.889Z,1.10
2018-02-23T11:07:05.836Z,1.40
2018-02-23T11:09:33.604Z,1.40
2018-02-23T11:12:01.568Z,1.00
2018-02-23T11:14:30.325Z,1.30
2018-02-23T11:16:58.135Z,1.20
2018-02-23T11:19:25.907Z,1.20
2018-02-23T11:21:53.993Z,0.90
2018-02-23T11:24:22.569Z,1.10
2018-02-23T11:26:51.458Z,1.10
2018-02-23T11:29:19.313Z,1.40
2018-02-23T11:31:47.265Z,1.50
2018-02-23T11:34:15.232Z,1.30
2018-02-23T11:36:43.121Z,1.40
2018-02-23T11:39:11.001Z,1.60
2018-02-23T11:41:38.828Z,1.50
2018-02-23T11:44:06.797Z,1.30
2018-02-23T11:46:34.696Z,1.00
2018-02-23T11:49:02.733Z,1.30
2018-02-23T11:51:30.708Z,1.20
2018-02-23T11:53:58.475Z,1.00
2018-02-23T11:56:26.438Z,1.00
2018-02-23T11:58:54.345Z,1.00
2018-02-23T12:01:23.601Z,1.10
2018-02-23T12:03:52.219Z,1.10
2018-02-23T12:06:20.073Z,0.80
2018-02-23T12:08:49.304Z,0.80
2018-02-23T12:11:17.955Z,1.00
2018-02-23T12:13:45.906Z,1.00
2018-02-23T12:16:13.794Z,1.10
2018-02-23T12:18:42.079Z,0.90
2018-02-23T12:21:10.032Z,0.80
2018-02-23T12:23:37.906Z,0.90
2018-02-23T12:26:05.771Z,1.00
2018-02-23T12:28:33.635Z,1.20
2018-02-23T12:31:01.587Z,1.20
2018-02-23T12:33:30.089Z,1.20
2018-02-23T12:35:57.949Z,1.10
2018-02-23T12:38:25.822Z,1.10
2018-02-23T12:40:53.710Z,1.10
2018-02-23T12:43:22.348Z,0.90
2018-02-23T12:45:50.219Z,0.90
2018-02-23T12:48:17.960Z,0.90
2018-02-23T12:50:45.846Z,0.90
2018-02-23T12:53:13.734Z,1.00
2018-02-23T12:55:41.680Z,1.10
2018-02-23T12:58:09.474Z,1.10
2018-02-23T13:00:37.517Z,0.90
2018-02-23T13:03:05.481Z,0.90
2018-02-23T13:05:33.263Z,0.80
2018-02-23T13:08:01.162Z,0.80
2018-02-23T13:10:29.904Z,0.80
2018-02-23T13:12:57.787Z,0.80
2018-02-23T13:15:25.654Z,1.00
2018-02-23T13:17:53.605Z,1.00
2018-02-23T13:20:21.485Z,0.90
2018-02-23T13:22:49.350Z,0.90
2018-02-23T13:25:18.246Z,0.90
2018-02-23T13:27:51.729Z,1.00
2018-02-23T13:30:19.482Z,1.10
2018-02-23T13:32:47.360Z,0.50
2018-02-23T13:35:15.307Z,0.60
2018-02-23T13:37:43.221Z,0.50
2018-02-23T13:40:11.087Z,0.50
2018-02-23T13:42:39.028Z,0.80
2018-02-23T13:45:06.921Z,0.90
2018-02-23T13:47:34.797Z,1.10
2018-02-23T13:50:04.100Z,0.90
2018-02-23T13:52:32.031Z,0.90
2018-02-23T13:55:00.243Z,1.20
2018-02-23T13:57:29.401Z,0.90
2018-02-23T13:59:57.369Z,0.90
2018-02-23T14:02:25.278Z,1.00
2018-02-23T14:04:54.040Z,1.10
2018-02-23T14:07:39.630Z,1.10
2018-02-23T14:10:07.504Z,0.90
2018-02-23T14:12:35.556Z,0.90
2018-02-23T14:15:03.428Z,1.00
2018-02-23T14:17:31.400Z,1.00
2018-02-23T14:19:59.446Z,1.00
2018-02-23T14:22:27.415Z,0.80
2018-02-23T14:24:55.212Z,0.70
2018-02-23T14:27:23.070Z,0.70
2018-02-23T14:29:50.932Z,0.70
2018-02-23T14:32:18.979Z,0.70
2018-02-23T14:34:46.972Z,0.70
2018-02-23T14:37:15.020Z,0.70
2018-02-23T14:39:43.089Z,0.70
2018-02-23T14:42:11.906Z,0.60
2018-02-23T14:44:42.017Z,0.60
2018-02-23T14:47:09.892Z,0.50
2018-02-23T14:49:49.509Z,0.50
2018-02-23T14:52:17.581Z,0.50
2018-02-23T14:54:45.358Z,0.40
2018-02-23T14:57:13.542Z,0.50
2018-02-23T14:59:41.487Z,0.40
2018-02-23T15:02:09.498Z,0.50
2018-02-23T15:04:38.118Z,0.50
2018-02-23T15:07:06.320Z,0.50
2018-02-23T15:09:34.593Z,0.60
2018-02-23T15:12:02.918Z,0.60
2018-02-23T15:14:31.468Z,0.50
2018-02-23T15:16:59.975Z,0.50
2018-02-23T15:19:28.724Z,0.40
2018-02-23T15:21:56.687Z,0.40
2018-02-23T15:24:25.008Z,0.30
2018-02-23T15:26:53.938Z,0.10
2018-02-23T15:29:21.954Z,0.10
2018-02-23T15:32:01.900Z,0.20
2018-02-23T15:34:30.086Z,0.20
2018-02-23T15:36:58.759Z,0.30
2018-02-23T15:39:27.533Z,0.20
2018-02-23T15:41:55.619Z,0.30
2018-02-23T15:44:23.685Z,0.30
2018-02-23T15:46:52.002Z,0.30
2018-02-23T15:49:25.860Z,0.20
2018-02-23T15:51:54.021Z,0.10
2018-02-23T15:54:21.989Z,0.20
2018-02-23T15:56:49.980Z,0.10
2018-02-23T15:59:17.945Z,0.10
2018-02-23T16:01:46.817Z,0.00
2018-02-23T16:04:14.672Z,0.00
2018-02-23T16:06:42.838Z,0.00
2018-02-23T16:09:10.828Z,0.00
2018-02-23T16:11:39.100Z,0.10
2018-02-23T16:14:07.076Z,0.10
2018-02-23T16:16:35.329Z,0.00
2018-02-23T16:19:04.612Z,0.00
2018-02-23T16:21:32.952Z,-0.10
2018-02-23T16:24:01.737Z,-0.10
2018-02-23T16:26:29.908Z,-0.10
2018-02-23T16:28:58.880Z,-0.20
2018-02-23T16:31:26.742Z,-0.20
2018-02-23T16:33:55.049Z,-0.20
2018-02-23T16:36:24.395Z,-0.20
2018-02-23T16:38:52.546Z,-0.30
2018-02-23T16:41:21.280Z,-0.20
2018-02-23T16:43:49.142Z,-0.30
2018-02-23T16:46:17.439Z,-0.20
2018-02-23T16:48:45.523Z,-0.20
2018-02-23T16:51:13.485Z,-0.20
2018-02-23T16:53:43.212Z,-0.20
2018-02-23T16:56:12.510Z,-0.20
2018-02-23T16:58:40.646Z,-0.20
2018-02-23T17:01:08.701Z,-0.20
2018-02-23T17:03:36.752Z,-0.20
2018-02-23T17:06:04.513Z,-0.20
2018-02-23T17:08:32.343Z,-0.20
2018-02-23T17:11:00.477Z,-0.20
2018-02-23T17:13:28.595Z,-0.20
2018-02-23T17:15:57.978Z,-0.30
2018-02-23T17:18:26.061Z,-0.30
2018-02-23T17:20:55.194Z,-0.30
2018-02-23T17:23:23.404Z,-0.30
2018-02-23T17:25:51.969Z,-0.30
2018-02-23T17:28:19.939Z,-0.30
2018-02-23T17:30:47.971Z,-0.40
2018-02-23T17:33:17.668Z,-0.40
2018-02-23T17:35:45.910Z,-0.40
2018-02-23T17:38:14.220Z,-0.50
2018-02-23T17:40:43.919Z,-0.50
2018-02-23T17:43:11.991Z,-0.50
2018-02-23T17:45:41.474Z,-0.50
2018-02-23T17:48:09.826Z,-0.50
2018-02-23T17:50:37.833Z,-0.50
2018-02-23T17:53:05.654Z,-0.50
2018-02-23T17:55:33.554Z,-0.50
2018-02-23T17:58:01.520Z,-0.50
2018-02-23T18:00:29.796Z,-0.50
2018-02-23T18:02:57.686Z,-0.50
2018-02-23T18:05:25.562Z,-0.40
2018-02-23T18:07:54.344Z,-0.50
2018-02-23T18:10:23.831Z,-0.50
2018-02-23T18:12:51.793Z,-0.50
2018-02-23T18:15:19.692Z,-0.40
2018-02-23T18:17:48.376Z,-0.50
2018-02-23T18:20:16.231Z,-0.50
2018-02-23T18:22:44.998Z,-0.50
2018-02-23T18:25:12.895Z,-0.50
2018-02-23T18:27:40.944Z,-0.50
2018-02-23T18:30:09.552Z,-0.50
2018-02-23T18:32:38.316Z,-0.50
2018-02-23T18:35:06.779Z,-0.50
2018-02-23T18:37:34.564Z,-0.50
2018-02-23T18:40:03.268Z,-0.50
2018-02-23T18:42:31.128Z,-0.50
2018-02-23T18:44:59.273Z,-0.50
2018-02-23T18:47:27.739Z,-0.50
2018-02-23T18:49:58.083Z,-0.50
2018-02-23T18:52:26.706Z,-0.60
2018-02-23T18:54:55.694Z,-0.60
2018-02-23T18:57:24.460Z,-0.60
2018-02-23T18:59:52.544Z,-0.60
2018-02-23T19:02:20.482Z,-0.60
2018-02-23T19:04:48.481Z,-0.60
2018-02-23T19:07:16.499Z,-0.60
2018-02-23T19:09:44.437Z,-0.60
2018-02-23T19:12:12.495Z,-0.60
2018-02-23T19:14:40.806Z,-0.50
2018-02-23T19:17:09.964Z,-0.60
2018-02-23T19:19:39.027Z,-0.60
2018-02-23T19:22:06.904Z,-0.60
2018-02-23T19:24:35.630Z,-0.60
2018-02-23T19:27:05.186Z,-0.60
2018-02-23T19:29:33.056Z,-0.60
2018-02-23T19:32:01.228Z,-0.60
2018-02-23T19:34:29.197Z,-0.60
2018-02-23T19:36:57.164Z,-0.60
2018-02-23T19:39:25.087Z,-0.60
2018-02-23T19:41:53.712Z,-0.60
2018-02-23T19:44:21.602Z,-0.60
2018-02-23T19:46:50.062Z,-0.60
2018-02-23T19:49:17.929Z,-0.60
2018-02-23T19:51:46.023Z,-0.60
2018-02-23T19:54:14.622Z,-0.50
2018-02-23T19:56:44.605Z,-0.50
2018-02-23T19:59:12.537Z,-0.50
2018-02-23T20:01:40.434Z,-0.50
2018-02-23T20:04:08.300Z,-0.40
2018-02-23T20:06:36.611Z,-0.40
2018-02-23T20:09:09.923Z,-0.50
2018-02-23T20:11:38.759Z,-0.50
2018-02-23T20:14:07.653Z,-0.50
2018-02-23T20:16:35.562Z,-0.50
2018-02-23T20:19:04.513Z,-0.60
2018-02-23T20:21:32.640Z,-0.60
2018-02-23T20:24:01.782Z,-0.50
2018-02-23T20:26:29.952Z,-0.60
2018-02-23T20:28:57.741Z,-0.50
2018-02-23T20:31:25.792Z,-0.50
2018-02-23T20:33:54.268Z,-0.60
2018-02-23T20:36:22.992Z,-0.60
2018-02-23T20:38:50.950Z,-0.60
2018-02-23T20:41:19.210Z,-0.60
2018-02-23T20:43:47.123Z,-0.50
2018-02-23T20:46:16.065Z,-0.50
2018-02-23T20:48:44.047Z,-0.60
2018-02-23T20:51:13.550Z,-0.60
2018-02-23T20:53:42.996Z,-0.50
2018-02-23T20:56:11.212Z,-0.50
2018-02-23T20:58:39.280Z,-0.60
2018-02-23T21:01:07.424Z,-0.60
2018-02-23T21:03:35.549Z,-0.60
2018-02-23T21:06:05.449Z,-0.60
2018-02-23T21:08:34.800Z,-0.60
2018-02-23T21:11:04.420Z,-0.60
2018-02-23T21:13:32.521Z,-0.60
2018-02-23T21:16:01.829Z,-0.60
2018-02-23T21:18:29.925Z,-0.60
2018-02-23T21:21:00.520Z,-0.50
2018-02-23T21:23:28.500Z,-0.60
2018-02-23T21:25:56.663Z,-0.60
2018-02-23T21:28:24.735Z,-0.60
2018-02-23T21:30:53.143Z,-0.60
2018-02-23T21:33:21.213Z,-0.50
2018-02-23T21:35:49.357Z,-0.50
2018-02-23T21:38:17.772Z,-0.50
2018-02-23T21:40:45.818Z,-0.60
2018-02-23T21:43:14.624Z,-0.60
2018-02-23T21:45:42.528Z,-0.60
2018-02-23T21:48:10.454Z,-0.50
2018-02-23T21:50:38.523Z,-0.50
2018-02-23T21:53:06.410Z,-0.60
2018-02-23T21:55:35.171Z,-0.60
2018-02-23T21:58:03.760Z,-0.60
2018-02-23T22:00:32.838Z,-0.60
2018-02-23T22:03:01.647Z,-0.60
2018-02-23T22:05:29.750Z,-0.60
2018-02-23T22:07:58.420Z,-0.50
2018-02-23T22:10:27.096Z,-0.50
2018-02-23T22:12:55.217Z,-0.50
2018-02-23T22:15:23.626Z,-0.50
2018-02-23T22:17:51.818Z,-0.50
2018-02-23T22:20:19.758Z,-0.60
2018-02-23T22:22:48.035Z,-0.60
2018-02-23T22:25:15.789Z,-0.50
2018-02-23T22:27:43.942Z,-0.50
2018-02-23T22:30:11.758Z,-0.60
2018-02-23T22:32:39.725Z,-0.60
2018-02-23T22:35:07.587Z,-0.60
2018-02-23T22:37:35.640Z,-0.60
2018-02-23T22:40:03.714Z,-0.50
2018-02-23T22:42:31.749Z,-0.50
2018-02-23T22:44:59.747Z,-0.50
2018-02-23T22:47:27.734Z,-0.50
2018-02-23T22:49:55.690Z,-0.50
2018-02-23T22:52:23.470Z,-0.50
2018-02-23T22:54:52.126Z,-0.50
2018-02-23T22:57:20.225Z,-0.50
2018-02-23T22:59:48.116Z,-0.60
2018-02-23T23:02:15.950Z,-0.60
2018-02-23T23:04:43.796Z,-0.50
2018-02-23T23:07:15.816Z,-0.50
2018-02-23T23:09:44.385Z,-0.40
2018-02-23T23:12:12.448Z,-0.40
2018-02-23T23:14:42.346Z,-0.50
2018-02-23T23:17:10.133Z,-0.50
2018-02-23T23:19:38.194Z,-0.50
2018-02-23T23:22:06.071Z,-0.60
2018-02-23T23:24:33.932Z,-0.60
2018-02-23T23:27:02.627Z,-0.60
2018-02-23T23:29:30.897Z,-0.60
2018-02-23T23:32:00.889Z,-0.60
2018-02-23T23:34:28.812Z,-0.50
2018-02-23T23:36:57.696Z,-0.60
2018-02-23T23:39:32.846Z,-0.60
2018-02-23T23:42:01.277Z,-0.60
2018-02-23T23:44:29.214Z,-0.60
2018-02-23T23:46:57.122Z,-0.60
2018-02-23T23:49:24.879Z,-0.60
2018-02-23T23:51:52.756Z,-0.60
2018-02-23T23:54:20.958Z,-0.60
2018-02-23T23:56:49.688Z,-0.50
2018-02-23T23:59:18.450Z,-0.50
